createdAt,value
2019-03-13T00:00:58.006Z,1.90
2019-03-13T00:03:29.157Z,2.00
2019-03-13T00:06:00.193Z,1.90
2019-03-13T00:08:31.030Z,1.90
2019-03-13T00:11:01.873Z,1.90
2019-03-13T00:13:32.638Z,1.90
2019-03-13T00:16:03.200Z,1.90
2019-03-13T00:18:33.760Z,1.90
2019-03-13T00:21:04.276Z,1.90
2019-03-13T00:23:34.964Z,1.90
2019-03-13T00:26:06.809Z,1.90
2019-03-13T00:28:37.264Z,1.90
2019-03-13T00:31:07.904Z,1.90
2019-03-13T00:33:38.348Z,1.80
2019-03-13T00:36:09.222Z,1.70
2019-03-13T00:38:39.770Z,1.60
2019-03-13T00:41:10.255Z,1.60
2019-03-13T00:43:41.156Z,1.60
2019-03-13T00:46:12.141Z,1.70
2019-03-13T00:48:43.131Z,1.60
2019-03-13T00:51:13.582Z,1.60
2019-03-13T00:53:44.163Z,1.50
2019-03-13T00:56:14.893Z,1.30
2019-03-13T00:58:45.381Z,1.30
2019-03-13T01:01:38.019Z,1.30
2019-03-13T01:04:13.761Z,1.40
2019-03-13T01:06:47.888Z,1.40
2019-03-13T01:09:18.573Z,1.30
2019-03-13T01:11:49.062Z,1.30
2019-03-13T01:14:19.625Z,1.30
2019-03-13T01:16:51.125Z,1.20
2019-03-13T01:19:21.973Z,1.30
2019-03-13T01:21:52.697Z,1.30
2019-03-13T01:24:23.171Z,1.30
2019-03-13T01:26:53.654Z,1.40
2019-03-13T01:29:24.434Z,1.50
2019-03-13T01:32:22.844Z,1.40
2019-03-13T01:35:10.758Z,1.40
2019-03-13T01:37:41.371Z,1.40
2019-03-13T01:40:12.866Z,1.50
2019-03-13T01:42:43.533Z,1.30
2019-03-13T01:45:14.276Z,1.30
2019-03-13T01:47:44.865Z,1.30
2019-03-13T01:50:15.796Z,1.30
2019-03-13T01:52:46.974Z,1.20
2019-03-13T01:55:17.682Z,1.20
2019-03-13T01:57:48.176Z,1.10
2019-03-13T02:00:18.736Z,1.10
2019-03-13T02:02:49.276Z,1.00
2019-03-13T02:05:19.761Z,1.00
2019-03-13T02:07:50.443Z,1.10
2019-03-13T02:10:21.315Z,1.00
2019-03-13T02:12:52.240Z,1.00
2019-03-13T02:15:22.652Z,1.10
2019-03-13T02:17:53.123Z,1.30
2019-03-13T02:20:24.179Z,1.20
2019-03-13T02:22:55.091Z,1.10
2019-03-13T02:25:25.541Z,1.00
2019-03-13T02:27:56.227Z,0.90
2019-03-13T02:30:27.766Z,1.00
2019-03-13T02:32:58.290Z,0.90
2019-03-13T02:35:28.955Z,1.00
2019-03-13T02:37:59.493Z,1.10
2019-03-13T02:40:31.469Z,1.20
2019-03-13T02:43:02.229Z,1.10
2019-03-13T02:45:32.762Z,1.20
2019-03-13T02:48:03.466Z,1.30
2019-03-13T02:50:34.156Z,1.40
2019-03-13T02:53:04.723Z,1.50
2019-03-13T02:55:35.262Z,1.60
2019-03-13T02:58:05.859Z,1.70
2019-03-13T03:00:49.739Z,1.80
2019-03-13T03:03:32.208Z,1.80
2019-03-13T03:06:02.770Z,1.80
2019-03-13T03:08:33.416Z,1.80
2019-03-13T03:11:03.990Z,1.70
2019-03-13T03:13:34.475Z,1.70
2019-03-13T03:16:06.240Z,1.70
2019-03-13T03:18:36.959Z,1.50
2019-03-13T03:21:07.894Z,1.60
2019-03-13T03:23:38.524Z,1.60
2019-03-13T03:26:09.056Z,1.60
2019-03-13T03:28:40.137Z,1.60
2019-03-13T03:31:10.829Z,1.60
2019-03-13T03:33:41.723Z,1.60
2019-03-13T03:36:12.343Z,1.50
2019-03-13T03:38:42.909Z,1.50
2019-03-13T03:41:13.372Z,1.40
2019-03-13T03:43:43.794Z,1.40
2019-03-13T03:46:14.460Z,1.30
2019-03-13T03:48:44.921Z,1.30
2019-03-13T03:51:15.769Z,1.30
2019-03-13T03:53:46.205Z,1.30
2019-03-13T03:56:16.828Z,1.20
2019-03-13T03:58:47.253Z,1.20
2019-03-13T04:01:17.728Z,1.20
2019-03-13T04:03:48.211Z,1.20
2019-03-13T04:06:18.769Z,1.20
2019-03-13T04:08:49.264Z,1.20
2019-03-13T04:11:20.013Z,1.30
2019-03-13T04:13:50.461Z,1.30
2019-03-13T04:16:20.888Z,1.30
2019-03-13T04:18:52.950Z,1.30
2019-03-13T04:21:23.427Z,1.30
2019-03-13T04:23:54.271Z,1.40
2019-03-13T04:26:25.676Z,1.40
2019-03-13T04:28:56.394Z,1.40
2019-03-13T04:31:27.059Z,1.40
2019-03-13T04:33:57.876Z,1.50
2019-03-13T04:36:28.376Z,1.50
2019-03-13T04:38:58.812Z,1.50
2019-03-13T04:41:29.424Z,1.60
2019-03-13T04:43:59.850Z,1.60
2019-03-13T04:46:30.291Z,1.60
2019-03-13T04:49:01.193Z,1.60
2019-03-13T04:51:31.941Z,1.60
2019-03-13T04:54:02.373Z,1.60
2019-03-13T04:56:32.835Z,1.70
2019-03-13T04:59:03.237Z,1.70
2019-03-13T05:01:33.936Z,1.70
2019-03-13T05:04:04.422Z,1.70
2019-03-13T05:06:35.111Z,1.70
2019-03-13T05:09:10.400Z,1.80
2019-03-13T05:11:40.933Z,1.80
2019-03-13T05:14:11.704Z,1.90
2019-03-13T05:16:42.749Z,1.90
2019-03-13T05:19:13.260Z,1.90
2019-03-13T05:21:43.802Z,1.90
2019-03-13T05:24:14.416Z,2.00
2019-03-13T05:26:44.935Z,2.00
2019-03-13T05:29:15.658Z,2.10
2019-03-13T05:31:47.240Z,2.10
2019-03-13T05:34:17.947Z,2.20
2019-03-13T05:36:48.646Z,2.20
2019-03-13T05:39:19.478Z,2.30
2019-03-13T05:41:49.979Z,2.30
2019-03-13T05:44:20.432Z,2.30
2019-03-13T05:46:51.840Z,2.40
2019-03-13T05:49:22.313Z,2.40
2019-03-13T05:51:53.361Z,2.40
2019-03-13T05:54:24.038Z,2.50
2019-03-13T05:56:54.853Z,2.50
2019-03-13T05:59:25.491Z,2.60
2019-03-13T06:01:56.068Z,2.60
2019-03-13T06:04:26.473Z,2.70
2019-03-13T06:06:57.215Z,2.70
2019-03-13T06:09:27.763Z,2.70
2019-03-13T06:11:58.723Z,2.80
2019-03-13T06:14:29.292Z,2.80
2019-03-13T06:16:59.880Z,2.80
2019-03-13T06:19:30.332Z,2.80
2019-03-13T06:22:00.922Z,2.90
2019-03-13T06:24:31.419Z,2.90
2019-03-13T06:27:02.332Z,3.10
2019-03-13T06:29:33.059Z,3.20
2019-03-13T06:32:03.545Z,3.30
2019-03-13T06:34:34.167Z,3.30
2019-03-13T06:37:04.784Z,3.40
2019-03-13T06:39:35.381Z,3.50
2019-03-13T06:42:05.893Z,3.50
2019-03-13T06:44:36.410Z,3.60
2019-03-13T06:47:06.913Z,3.70
2019-03-13T06:49:37.361Z,3.70
2019-03-13T06:52:07.847Z,3.80
2019-03-13T06:54:38.539Z,3.90
2019-03-13T06:57:08.995Z,4.10
2019-03-13T06:59:58.393Z,4.30
2019-03-13T07:02:34.139Z,4.30
2019-03-13T07:05:39.113Z,4.40
2019-03-13T07:08:31.479Z,4.60
2019-03-13T07:11:15.252Z,4.70
2019-03-13T07:13:55.609Z,4.80
2019-03-13T07:16:44.185Z,4.80
2019-03-13T07:19:36.824Z,4.80
2019-03-13T07:22:44.508Z,4.80
2019-03-13T07:25:28.130Z,4.80
2019-03-13T07:28:23.544Z,4.90
2019-03-13T07:31:22.199Z,4.90
2019-03-13T07:34:17.495Z,5.00
2019-03-13T07:37:12.912Z,5.10
2019-03-13T07:40:00.972Z,5.10
2019-03-13T07:42:47.254Z,5.10
2019-03-13T07:45:36.018Z,5.10
2019-03-13T07:48:34.683Z,5.20
2019-03-13T07:51:20.265Z,5.20
2019-03-13T07:54:01.027Z,5.30
2019-03-13T07:56:45.477Z,5.30
2019-03-13T07:59:34.825Z,5.40
2019-03-13T08:02:12.729Z,5.40
2019-03-13T08:04:58.272Z,5.40
2019-03-13T08:07:37.740Z,5.40
2019-03-13T08:10:28.417Z,5.30
2019-03-13T08:13:36.407Z,5.20
2019-03-13T08:16:22.303Z,5.30
2019-03-13T08:19:10.907Z,5.30
2019-03-13T08:21:55.869Z,5.40
2019-03-13T08:24:44.214Z,5.50
2019-03-13T08:27:22.946Z,5.50
2019-03-13T08:30:20.425Z,5.60
2019-03-13T08:33:25.311Z,5.70
2019-03-13T08:36:13.979Z,5.70
2019-03-13T08:39:12.234Z,5.80
2019-03-13T08:42:13.689Z,5.80
2019-03-13T08:45:14.950Z,5.80
2019-03-13T08:48:02.054Z,5.80
2019-03-13T08:50:57.313Z,5.90
2019-03-13T08:53:56.458Z,5.80
2019-03-13T08:56:45.171Z,5.90
2019-03-13T08:59:23.703Z,5.80
2019-03-13T09:02:28.856Z,5.80
2019-03-13T09:05:17.242Z,5.80
2019-03-13T09:08:04.608Z,5.80
2019-03-13T09:10:52.589Z,5.70
2019-03-13T09:13:48.327Z,5.80
2019-03-13T09:16:55.961Z,5.60
2019-03-13T09:19:43.670Z,5.70
2019-03-13T09:22:25.811Z,5.70
2019-03-13T09:25:12.873Z,5.70
2019-03-13T09:28:03.778Z,5.70
2019-03-13T09:31:05.207Z,5.80
2019-03-13T09:33:49.630Z,5.80
2019-03-13T09:36:42.169Z,5.70
2019-03-13T09:39:32.793Z,5.60
2019-03-13T09:42:18.815Z,5.60
2019-03-13T09:45:11.162Z,5.60
2019-03-13T09:48:09.652Z,5.60
2019-03-13T09:50:55.328Z,5.80
2019-03-13T09:53:30.971Z,6.10
2019-03-13T09:56:15.450Z,6.40
2019-03-13T09:59:08.047Z,6.40
2019-03-13T10:02:01.029Z,6.40
2019-03-13T10:04:53.265Z,6.50
2019-03-13T10:07:32.894Z,6.50
2019-03-13T10:10:21.350Z,6.50
2019-03-13T10:13:01.940Z,6.30
2019-03-13T10:15:45.258Z,6.10
2019-03-13T10:18:33.756Z,6.00
2019-03-13T10:21:22.398Z,5.90
2019-03-13T10:24:03.030Z,5.80
2019-03-13T10:27:07.662Z,5.80
2019-03-13T10:29:43.412Z,5.70
2019-03-13T10:32:39.559Z,5.60
2019-03-13T10:35:22.420Z,5.50
2019-03-13T10:38:14.272Z,5.40
2019-03-13T10:41:10.953Z,5.30
2019-03-13T10:44:03.606Z,5.10
2019-03-13T10:46:59.144Z,5.10
2019-03-13T10:49:46.838Z,5.10
2019-03-13T10:52:42.286Z,5.00
2019-03-13T10:55:34.843Z,4.90
2019-03-13T10:58:33.703Z,4.90
2019-03-13T11:01:08.945Z,5.00
2019-03-13T11:04:01.989Z,5.10
2019-03-13T11:06:55.510Z,5.10
2019-03-13T11:09:37.483Z,5.20
2019-03-13T11:12:32.884Z,5.20
2019-03-13T11:15:10.789Z,5.30
2019-03-13T11:18:03.316Z,5.30
2019-03-13T11:20:47.265Z,5.30
2019-03-13T11:23:27.218Z,5.40
2019-03-13T11:26:08.110Z,5.50
2019-03-13T11:28:47.643Z,5.50
2019-03-13T11:31:32.070Z,5.60
2019-03-13T11:34:21.215Z,5.60
2019-03-13T11:37:19.960Z,5.70
2019-03-13T11:40:21.700Z,5.70
2019-03-13T11:43:09.670Z,5.70
2019-03-13T11:45:57.832Z,5.70
2019-03-13T11:48:50.292Z,5.80
2019-03-13T11:51:41.368Z,5.80
2019-03-13T11:54:30.865Z,5.70
2019-03-13T11:57:10.630Z,5.70
2019-03-13T11:59:49.489Z,5.70
2019-03-13T12:02:37.846Z,5.70
2019-03-13T12:05:31.952Z,5.70
2019-03-13T12:08:28.543Z,5.70
2019-03-13T12:11:33.339Z,5.70
2019-03-13T12:14:34.948Z,5.60
2019-03-13T12:17:21.912Z,5.60
2019-03-13T12:20:14.301Z,5.50
2019-03-13T12:23:09.761Z,5.50
2019-03-13T12:26:05.345Z,5.50
2019-03-13T12:28:48.063Z,5.60
2019-03-13T12:32:06.147Z,5.60
2019-03-13T12:34:54.519Z,5.60
2019-03-13T12:37:59.293Z,5.60
2019-03-13T12:41:00.829Z,5.60
2019-03-13T12:43:51.360Z,5.60
2019-03-13T12:46:43.996Z,5.60
2019-03-13T12:49:24.074Z,5.70
2019-03-13T12:52:07.057Z,5.60
2019-03-13T12:55:02.618Z,5.70
2019-03-13T12:57:50.529Z,5.70
2019-03-13T13:00:38.496Z,5.80
2019-03-13T13:03:31.052Z,5.90
2019-03-13T13:06:38.576Z,6.10
2019-03-13T13:09:37.265Z,6.20
2019-03-13T13:12:29.785Z,6.40
2019-03-13T13:15:10.837Z,6.70
2019-03-13T13:17:49.544Z,6.80
2019-03-13T13:20:20.104Z,7.00
2019-03-13T13:22:50.672Z,7.20
2019-03-13T13:25:21.176Z,7.40
2019-03-13T13:27:51.782Z,7.60
2019-03-13T13:30:22.266Z,7.90
2019-03-13T13:32:52.750Z,8.20
2019-03-13T13:35:23.208Z,8.10
2019-03-13T13:37:53.615Z,8.00
2019-03-13T13:40:24.027Z,7.90
2019-03-13T13:42:54.591Z,7.80
2019-03-13T13:45:44.371Z,7.70
2019-03-13T13:48:14.928Z,7.40
2019-03-13T13:50:45.443Z,7.40
2019-03-13T13:53:16.069Z,8.80
2019-03-13T13:55:46.531Z,11.30
2019-03-13T13:58:17.055Z,12.70
2019-03-13T14:00:47.645Z,13.30
2019-03-13T14:03:18.299Z,13.90
2019-03-13T14:05:48.789Z,13.20
2019-03-13T14:08:19.225Z,13.20
2019-03-13T14:10:49.891Z,12.70
2019-03-13T14:13:20.283Z,12.30
2019-03-13T14:15:50.763Z,11.60
2019-03-13T14:18:21.711Z,10.50
2019-03-13T14:20:52.216Z,9.50
2019-03-13T14:23:22.599Z,8.90
2019-03-13T14:25:53.068Z,8.90
2019-03-13T14:28:23.452Z,8.90
2019-03-13T14:30:53.932Z,8.90
2019-03-13T14:33:24.558Z,8.80
2019-03-13T14:35:56.206Z,8.80
2019-03-13T14:38:27.020Z,8.70
2019-03-13T14:40:57.805Z,8.70
2019-03-13T14:43:28.282Z,8.90
2019-03-13T14:45:58.849Z,8.90
2019-03-13T14:48:29.514Z,9.00
2019-03-13T14:51:00.007Z,9.30
2019-03-13T14:53:30.504Z,9.40
2019-03-13T14:56:00.928Z,9.50
2019-03-13T14:58:31.736Z,9.50
2019-03-13T15:01:02.151Z,9.20
2019-03-13T15:03:33.102Z,9.00
2019-03-13T15:06:03.654Z,8.90
2019-03-13T15:08:34.448Z,8.70
2019-03-13T15:11:05.015Z,8.70
2019-03-13T15:13:35.729Z,8.70
2019-03-13T15:16:06.313Z,8.70
2019-03-13T15:18:36.906Z,8.70
2019-03-13T15:21:07.448Z,8.60
2019-03-13T15:23:37.903Z,8.60
2019-03-13T15:26:08.389Z,8.70
2019-03-13T15:28:38.991Z,8.70
2019-03-13T15:31:10.068Z,8.60
2019-03-13T15:33:41.883Z,8.70
2019-03-13T15:36:12.531Z,8.70
2019-03-13T15:38:43.144Z,8.80
2019-03-13T15:41:13.791Z,8.70
2019-03-13T15:43:44.506Z,8.60
2019-03-13T15:46:15.154Z,8.50
2019-03-13T15:48:45.664Z,8.50
2019-03-13T15:51:16.068Z,8.60
2019-03-13T15:53:46.833Z,8.60
2019-03-13T15:56:17.321Z,8.60
2019-03-13T15:58:47.722Z,8.40
2019-03-13T16:01:18.284Z,8.40
2019-03-13T16:03:48.774Z,8.40
2019-03-13T16:06:19.201Z,8.40
2019-03-13T16:08:49.802Z,8.40
2019-03-13T16:11:20.200Z,8.30
2019-03-13T16:13:50.732Z,8.20
2019-03-13T16:16:21.242Z,8.20
2019-03-13T16:18:51.750Z,8.10
2019-03-13T16:21:22.385Z,8.00
2019-03-13T16:23:54.195Z,7.90
2019-03-13T16:26:24.750Z,7.80
2019-03-13T16:28:55.426Z,7.70
2019-03-13T16:31:26.324Z,7.70
2019-03-13T16:33:59.758Z,7.70
2019-03-13T16:36:30.272Z,7.60
2019-03-13T16:39:01.081Z,7.60
2019-03-13T16:41:33.145Z,7.60
2019-03-13T16:44:03.785Z,7.60
2019-03-13T16:46:34.314Z,7.50
2019-03-13T16:49:05.041Z,7.50
2019-03-13T16:51:35.691Z,7.50
2019-03-13T16:54:06.313Z,7.40
2019-03-13T16:56:36.799Z,7.40
2019-03-13T16:59:07.479Z,7.30
2019-03-13T17:01:37.967Z,7.40
2019-03-13T17:04:08.733Z,7.30
2019-03-13T17:06:39.302Z,7.30
2019-03-13T17:09:09.887Z,7.20
2019-03-13T17:11:41.737Z,7.10
2019-03-13T17:14:12.449Z,7.00
2019-03-13T17:16:42.882Z,7.00
2019-03-13T17:19:13.476Z,6.90
2019-03-13T17:21:44.102Z,7.00
2019-03-13T17:24:15.019Z,6.90
2019-03-13T17:26:45.440Z,6.80
2019-03-13T17:29:15.984Z,6.80
2019-03-13T17:31:46.815Z,6.80
2019-03-13T17:34:17.450Z,6.80
2019-03-13T17:36:48.147Z,6.80
2019-03-13T17:39:19.084Z,6.90
2019-03-13T17:41:49.611Z,6.80
2019-03-13T17:44:20.090Z,6.90
2019-03-13T17:46:50.451Z,6.90
2019-03-13T17:49:21.120Z,6.90
2019-03-13T17:51:51.554Z,6.90
2019-03-13T17:54:22.006Z,6.80
2019-03-13T17:56:52.471Z,6.80
2019-03-13T17:59:22.926Z,6.60
2019-03-13T18:01:53.534Z,6.50
2019-03-13T18:04:23.982Z,6.40
2019-03-13T18:06:54.963Z,6.30
2019-03-13T18:09:25.702Z,6.20
2019-03-13T18:11:56.378Z,6.10
2019-03-13T18:14:29.550Z,6.10
2019-03-13T18:16:59.410Z,6.10
2019-03-13T18:19:30.197Z,6.10
2019-03-13T18:22:01.347Z,6.10
2019-03-13T18:24:32.315Z,6.10
2019-03-13T18:27:03.512Z,6.10
2019-03-13T18:29:34.531Z,6.30
2019-03-13T18:32:05.585Z,6.30
2019-03-13T18:34:36.421Z,6.40
2019-03-13T18:37:07.789Z,6.40
2019-03-13T18:39:39.466Z,6.30
2019-03-13T18:42:11.112Z,6.30
2019-03-13T18:44:42.195Z,6.20
2019-03-13T18:47:13.297Z,6.20
2019-03-13T18:49:44.035Z,6.30
2019-03-13T18:52:16.047Z,6.40
2019-03-13T18:54:47.816Z,6.40
2019-03-13T18:57:19.976Z,6.30
2019-03-13T18:59:53.411Z,6.40
2019-03-13T19:02:25.480Z,6.40
2019-03-13T19:04:57.781Z,6.50
2019-03-13T19:07:29.326Z,6.50
2019-03-13T19:10:00.504Z,6.50
2019-03-13T19:12:32.324Z,6.50
2019-03-13T19:15:04.595Z,6.50
2019-03-13T19:17:35.758Z,6.50
2019-03-13T19:20:07.791Z,6.60
2019-03-13T19:22:38.745Z,6.50
2019-03-13T19:25:11.513Z,6.50
2019-03-13T19:27:43.237Z,6.50
2019-03-13T19:30:19.813Z,6.50
2019-03-13T19:32:51.172Z,6.50
2019-03-13T19:35:22.588Z,6.50
2019-03-13T19:37:54.063Z,6.40
2019-03-13T19:40:25.289Z,6.30
2019-03-13T19:42:56.148Z,6.20
2019-03-13T19:45:29.694Z,6.00
2019-03-13T19:48:01.494Z,5.90
2019-03-13T19:50:32.955Z,5.80
2019-03-13T19:53:04.167Z,5.70
2019-03-13T19:55:35.386Z,5.70
2019-03-13T19:58:06.659Z,5.70
2019-03-13T20:00:37.575Z,5.70
2019-03-13T20:03:09.250Z,5.80
2019-03-13T20:05:45.395Z,5.80
2019-03-13T20:08:14.138Z,5.80
2019-03-13T20:10:45.047Z,5.70
2019-03-13T20:13:15.923Z,5.70
2019-03-13T20:15:47.024Z,5.70
2019-03-13T20:18:17.799Z,5.80
2019-03-13T20:20:48.706Z,5.90
2019-03-13T20:23:20.458Z,6.00
2019-03-13T20:25:53.436Z,6.00
2019-03-13T20:28:24.548Z,6.10
2019-03-13T20:30:55.584Z,6.00
2019-03-13T20:33:26.850Z,6.10
2019-03-13T20:35:58.115Z,6.10
2019-03-13T20:38:29.036Z,6.10
2019-03-13T20:41:00.281Z,6.10
2019-03-13T20:43:31.186Z,6.10
2019-03-13T20:46:01.971Z,6.10
2019-03-13T20:48:32.902Z,6.10
2019-03-13T20:51:03.788Z,6.10
2019-03-13T20:53:34.678Z,6.10
2019-03-13T20:56:05.664Z,6.00
2019-03-13T20:58:37.139Z,6.10
2019-03-13T21:01:08.097Z,5.90
2019-03-13T21:03:38.632Z,6.00
2019-03-13T21:06:09.326Z,6.00
2019-03-13T21:08:40.390Z,5.90
2019-03-13T21:11:11.909Z,5.90
2019-03-13T21:13:42.778Z,5.90
2019-03-13T21:16:13.472Z,5.80
2019-03-13T21:18:44.383Z,5.70
2019-03-13T21:21:16.183Z,5.70
2019-03-13T21:23:46.790Z,5.70
2019-03-13T21:26:17.763Z,5.80
2019-03-13T21:28:48.463Z,5.70
2019-03-13T21:31:19.944Z,5.60
2019-03-13T21:33:50.699Z,5.60
2019-03-13T21:36:22.090Z,5.50
2019-03-13T21:38:53.197Z,5.50
2019-03-13T21:41:24.049Z,5.50
2019-03-13T21:43:55.049Z,5.50
2019-03-13T21:46:25.759Z,5.50
2019-03-13T21:48:56.633Z,5.40
2019-03-13T21:51:27.601Z,5.50
2019-03-13T21:53:58.073Z,5.50
2019-03-13T21:56:28.543Z,5.50
2019-03-13T21:58:59.467Z,5.50
2019-03-13T22:01:30.139Z,5.40
2019-03-13T22:04:00.670Z,5.40
2019-03-13T22:06:31.369Z,5.40
2019-03-13T22:09:01.804Z,5.40
2019-03-13T22:11:34.130Z,5.40
2019-03-13T22:14:04.614Z,5.30
2019-03-13T22:16:35.192Z,5.30
2019-03-13T22:19:05.650Z,5.30
2019-03-13T22:21:36.412Z,5.20
2019-03-13T22:24:07.030Z,5.30
2019-03-13T22:26:37.776Z,5.30
2019-03-13T22:29:08.486Z,5.20
2019-03-13T22:31:38.868Z,5.10
2019-03-13T22:34:09.342Z,5.00
2019-03-13T22:36:39.988Z,4.90
2019-03-13T22:39:10.398Z,4.90
2019-03-13T22:41:41.026Z,4.90
2019-03-13T22:44:11.489Z,4.90
2019-03-13T22:46:41.986Z,4.90
2019-03-13T22:49:12.472Z,4.90
2019-03-13T22:51:43.280Z,4.80
2019-03-13T22:54:13.880Z,4.80
2019-03-13T22:56:44.579Z,4.80
2019-03-13T22:59:15.189Z,4.90
2019-03-13T23:01:45.948Z,4.90
2019-03-13T23:04:16.525Z,4.80
2019-03-13T23:06:47.025Z,4.70
2019-03-13T23:09:17.735Z,4.80
2019-03-13T23:11:48.319Z,4.80
2019-03-13T23:14:18.801Z,4.70
2019-03-13T23:16:49.365Z,4.70
2019-03-13T23:19:19.926Z,4.70
2019-03-13T23:21:50.509Z,4.60
2019-03-13T23:24:21.274Z,4.60
2019-03-13T23:26:51.993Z,4.60
2019-03-13T23:29:22.501Z,4.60
2019-03-13T23:31:53.183Z,4.50
2019-03-13T23:34:23.708Z,4.50
2019-03-13T23:36:54.263Z,4.50
2019-03-13T23:39:24.770Z,4.50
2019-03-13T23:41:55.221Z,4.40
2019-03-13T23:44:25.622Z,4.40
2019-03-13T23:46:56.033Z,4.50
2019-03-13T23:49:26.440Z,4.50
2019-03-13T23:51:57.004Z,4.40
2019-03-13T23:54:27.457Z,4.40
2019-03-13T23:56:57.856Z,4.40
2019-03-13T23:59:28.316Z,4.50
